createdAt,value
2018-02-15T00:00:03.399Z,851.26
2018-02-15T00:01:03.261Z,851.24
2018-02-15T00:02:03.123Z,851.24
2018-02-15T00:03:02.981Z,851.21
2018-02-15T00:04:02.844Z,851.29
2018-02-15T00:05:02.704Z,851.33
2018-02-15T00:06:02.564Z,851.37
2018-02-15T00:07:02.427Z,851.38
2018-02-15T00:08:02.286Z,851.40
2018-02-15T00:09:02.147Z,851.43
2018-02-15T00:10:02.012Z,851.43
2018-02-15T00:11:01.871Z,851.40
2018-02-15T00:12:01.731Z,851.41
2018-02-15T00:13:01.592Z,851.41
2018-02-15T00:14:01.454Z,851.42
2018-02-15T00:15:01.314Z,851.40
2018-02-15T00:16:01.174Z,851.38
2018-02-15T00:17:01.037Z,851.38
2018-02-15T00:18:00.895Z,851.38
2018-02-15T00:19:00.756Z,851.35
2018-02-15T00:20:00.621Z,851.31
2018-02-15T00:21:00.480Z,851.26
2018-02-15T00:22:00.340Z,851.31
2018-02-15T00:23:00.200Z,851.30
2018-02-15T00:24:00.062Z,851.32
2018-02-15T00:24:59.923Z,851.34
2018-02-15T00:25:59.784Z,851.39
2018-02-15T00:26:59.644Z,851.40
2018-02-15T00:27:59.504Z,851.43
2018-02-15T00:28:59.414Z,851.42
2018-02-15T00:29:59.229Z,851.39
2018-02-15T00:30:59.090Z,851.42
2018-02-15T00:31:58.951Z,851.44
2018-02-15T00:32:58.812Z,851.43
2018-02-15T00:33:58.669Z,851.47
2018-02-15T00:34:58.535Z,851.43
2018-02-15T00:35:58.392Z,851.46
2018-02-15T00:36:58.253Z,851.43
2018-02-15T00:37:58.116Z,851.40
2018-02-15T00:38:57.975Z,851.39
2018-02-15T00:39:57.839Z,851.45
2018-02-15T00:40:57.699Z,851.41
2018-02-15T00:41:57.560Z,851.42
2018-02-15T00:42:57.423Z,851.40
2018-02-15T00:43:57.280Z,851.35
2018-02-15T00:44:57.148Z,851.33
2018-02-15T00:45:57.002Z,851.34
2018-02-15T00:46:56.861Z,851.27
2018-02-15T00:47:56.722Z,851.30
2018-02-15T00:48:56.585Z,851.22
2018-02-15T00:49:56.445Z,851.24
2018-02-15T00:50:56.305Z,851.25
2018-02-15T00:51:56.164Z,851.28
2018-02-15T00:52:56.027Z,851.27
2018-02-15T00:53:55.888Z,851.30
2018-02-15T00:54:55.747Z,851.27
2018-02-15T00:55:55.608Z,851.29
2018-02-15T00:56:55.473Z,851.32
2018-02-15T00:57:55.331Z,851.29
2018-02-15T00:58:55.190Z,851.30
2018-02-15T00:59:55.053Z,851.33
2018-02-15T01:00:54.910Z,851.31
2018-02-15T01:01:54.771Z,851.35
2018-02-15T01:02:54.634Z,851.33
2018-02-15T01:03:54.496Z,851.35
2018-02-15T01:04:54.356Z,851.32
2018-02-15T01:05:54.225Z,851.32
2018-02-15T01:06:54.076Z,851.32
2018-02-15T01:07:53.941Z,851.34
2018-02-15T01:08:53.799Z,851.31
2018-02-15T01:09:53.663Z,851.31
2018-02-15T01:10:53.521Z,851.33
2018-02-15T01:11:53.382Z,851.30
2018-02-15T01:12:53.244Z,851.31
2018-02-15T01:13:53.108Z,851.28
2018-02-15T01:14:52.965Z,851.27
2018-02-15T01:15:52.825Z,851.27
2018-02-15T01:16:52.687Z,851.27
2018-02-15T01:17:52.549Z,851.27
2018-02-15T01:18:52.411Z,851.24
2018-02-15T01:19:52.268Z,851.25
2018-02-15T01:20:52.131Z,851.21
2018-02-15T01:21:51.992Z,851.21
2018-02-15T01:22:51.854Z,851.22
2018-02-15T01:23:51.712Z,851.18
2018-02-15T01:24:51.572Z,851.20
2018-02-15T01:25:51.435Z,851.19
2018-02-15T01:26:51.294Z,851.20
2018-02-15T01:27:51.154Z,851.24
2018-02-15T01:28:51.016Z,851.23
2018-02-15T01:29:50.879Z,851.18
2018-02-15T01:30:50.739Z,851.19
2018-02-15T01:31:50.599Z,851.24
2018-02-15T01:32:50.461Z,851.18
2018-02-15T01:33:50.321Z,851.20
2018-02-15T01:34:50.185Z,851.20
2018-02-15T01:35:50.043Z,851.20
2018-02-15T01:36:49.904Z,851.22
2018-02-15T01:37:49.766Z,851.19
2018-02-15T01:38:49.628Z,851.22
2018-02-15T01:39:49.488Z,851.19
2018-02-15T01:40:49.351Z,851.19
2018-02-15T01:41:49.210Z,851.18
2018-02-15T01:42:49.075Z,851.21
2018-02-15T01:43:48.934Z,851.20
2018-02-15T01:44:48.792Z,851.23
2018-02-15T01:45:48.654Z,851.24
2018-02-15T01:46:48.517Z,851.21
2018-02-15T01:47:48.376Z,851.20
2018-02-15T01:48:48.235Z,851.22
2018-02-15T01:49:48.097Z,851.22
2018-02-15T01:50:47.964Z,851.24
2018-02-15T01:51:47.821Z,851.25
2018-02-15T01:52:47.682Z,851.22
2018-02-15T01:53:47.543Z,851.19
2018-02-15T01:54:47.406Z,851.20
2018-02-15T01:55:47.264Z,851.20
2018-02-15T01:56:47.125Z,851.18
2018-02-15T01:57:46.990Z,851.21
2018-02-15T01:58:46.849Z,851.19
2018-02-15T01:59:46.734Z,851.22
2018-02-15T02:00:46.568Z,851.23
2018-02-15T02:01:46.432Z,851.24
2018-02-15T02:02:46.291Z,851.23
2018-02-15T02:03:46.154Z,851.24
2018-02-15T02:04:46.018Z,851.26
2018-02-15T02:05:45.873Z,851.26
2018-02-15T02:06:45.738Z,851.27
2018-02-15T02:07:45.595Z,851.27
2018-02-15T02:08:45.454Z,851.26
2018-02-15T02:09:45.317Z,851.23
2018-02-15T02:10:45.177Z,851.25
2018-02-15T02:11:45.038Z,851.25
2018-02-15T02:12:44.900Z,851.22
2018-02-15T02:13:44.762Z,851.22
2018-02-15T02:14:44.624Z,851.21
2018-02-15T02:15:44.483Z,851.18
2018-02-15T02:16:44.349Z,851.17
2018-02-15T02:17:44.204Z,851.18
2018-02-15T02:18:44.066Z,851.20
2018-02-15T02:19:43.927Z,851.23
2018-02-15T02:20:43.788Z,851.27
2018-02-15T02:21:43.653Z,851.32
2018-02-15T02:22:43.511Z,851.30
2018-02-15T02:23:43.371Z,851.29
2018-02-15T02:24:43.231Z,851.28
2018-02-15T02:25:43.091Z,851.28
2018-02-15T02:26:42.955Z,851.29
2018-02-15T02:27:42.814Z,851.33
2018-02-15T02:28:42.676Z,851.33
2018-02-15T02:29:42.545Z,851.35
2018-02-15T02:30:42.397Z,851.39
2018-02-15T02:31:42.258Z,851.40
2018-02-15T02:32:42.122Z,851.39
2018-02-15T02:33:41.982Z,851.38
2018-02-15T02:34:41.845Z,851.39
2018-02-15T02:35:41.702Z,851.36
2018-02-15T02:36:41.570Z,851.37
2018-02-15T02:37:41.428Z,851.37
2018-02-15T02:38:41.287Z,851.40
2018-02-15T02:39:41.147Z,851.41
2018-02-15T02:40:41.010Z,851.38
2018-02-15T02:41:40.868Z,851.37
2018-02-15T02:42:40.729Z,851.36
2018-02-15T02:43:40.593Z,851.32
2018-02-15T02:44:40.454Z,851.29
2018-02-15T02:45:40.315Z,851.23
2018-02-15T02:46:40.172Z,851.20
2018-02-15T02:47:40.033Z,851.23
2018-02-15T02:48:39.894Z,851.22
2018-02-15T02:49:39.759Z,851.23
2018-02-15T02:50:39.616Z,851.19
2018-02-15T02:51:39.480Z,851.17
2018-02-15T02:52:39.336Z,851.20
2018-02-15T02:53:39.199Z,851.19
2018-02-15T02:54:39.063Z,851.19
2018-02-15T02:55:38.921Z,851.19
2018-02-15T02:56:38.785Z,851.21
2018-02-15T02:57:38.645Z,851.17
2018-02-15T02:58:38.508Z,851.18
2018-02-15T02:59:38.364Z,851.18
2018-02-15T03:00:38.225Z,851.17
2018-02-15T03:01:38.090Z,851.17
2018-02-15T03:02:37.951Z,851.25
2018-02-15T03:03:37.812Z,851.16
2018-02-15T03:04:37.672Z,851.19
2018-02-15T03:05:37.532Z,851.19
2018-02-15T03:06:37.393Z,851.19
2018-02-15T03:07:37.256Z,851.21
2018-02-15T03:08:37.117Z,851.22
2018-02-15T03:09:36.978Z,851.18
2018-02-15T03:10:36.846Z,851.17
2018-02-15T03:11:36.702Z,851.20
2018-02-15T03:12:36.561Z,851.25
2018-02-15T03:13:36.424Z,851.23
2018-02-15T03:14:36.284Z,851.19
2018-02-15T03:15:36.147Z,851.21
2018-02-15T03:16:36.007Z,851.21
2018-02-15T03:17:35.871Z,851.13
2018-02-15T03:18:35.732Z,851.17
2018-02-15T03:19:35.591Z,851.15
2018-02-15T03:20:35.455Z,851.11
2018-02-15T03:21:35.321Z,851.14
2018-02-15T03:22:35.180Z,851.12
2018-02-15T03:23:35.040Z,851.15
2018-02-15T03:24:34.901Z,851.19
2018-02-15T03:25:34.767Z,851.20
2018-02-15T03:26:34.624Z,851.21
2018-02-15T03:27:34.488Z,851.21
2018-02-15T03:28:34.350Z,851.22
2018-02-15T03:29:34.217Z,851.23
2018-02-15T03:30:34.075Z,851.21
2018-02-15T03:31:33.932Z,851.20
2018-02-15T03:32:33.806Z,851.19
2018-02-15T03:33:33.656Z,851.22
2018-02-15T03:34:33.519Z,851.25
2018-02-15T03:35:33.382Z,851.24
2018-02-15T03:36:33.243Z,851.27
2018-02-15T03:37:33.109Z,851.28
2018-02-15T03:38:32.966Z,851.29
2018-02-15T03:39:32.827Z,851.31
2018-02-15T03:40:32.694Z,851.26
2018-02-15T03:41:32.551Z,851.24
2018-02-15T03:42:32.419Z,851.21
2018-02-15T03:43:32.276Z,851.24
2018-02-15T03:44:32.141Z,851.19
2018-02-15T03:45:32.006Z,851.18
2018-02-15T03:46:31.868Z,851.18
2018-02-15T03:47:31.724Z,851.22
2018-02-15T03:48:31.587Z,851.22
2018-02-15T03:49:31.450Z,851.13
2018-02-15T03:50:31.312Z,851.16
2018-02-15T03:51:31.173Z,851.15
2018-02-15T03:52:31.037Z,851.14
2018-02-15T03:53:30.898Z,851.16
2018-02-15T03:54:30.760Z,851.16
2018-02-15T03:55:30.620Z,851.19
2018-02-15T03:56:30.484Z,851.20
2018-02-15T03:57:30.347Z,851.14
2018-02-15T03:58:30.209Z,851.18
2018-02-15T03:59:30.072Z,851.13
2018-02-15T04:00:29.935Z,851.14
2018-02-15T04:01:29.795Z,851.15
2018-02-15T04:02:29.659Z,851.16
2018-02-15T04:03:29.521Z,851.17
2018-02-15T04:04:29.387Z,851.22
2018-02-15T04:05:29.248Z,851.23
2018-02-15T04:06:29.108Z,851.23
2018-02-15T04:07:28.971Z,851.23
2018-02-15T04:08:28.834Z,851.26
2018-02-15T04:09:28.697Z,851.24
2018-02-15T04:10:28.558Z,851.25
2018-02-15T04:11:28.420Z,851.23
2018-02-15T04:12:28.287Z,851.27
2018-02-15T04:13:28.147Z,851.22
2018-02-15T04:14:28.010Z,851.25
2018-02-15T04:15:27.871Z,851.28
2018-02-15T04:16:27.736Z,851.29
2018-02-15T04:17:27.596Z,851.28
2018-02-15T04:18:27.460Z,851.26
2018-02-15T04:19:27.323Z,851.27
2018-02-15T04:20:27.185Z,851.20
2018-02-15T04:21:27.046Z,851.19
2018-02-15T04:22:26.911Z,851.17
2018-02-15T04:23:26.771Z,851.12
2018-02-15T04:24:26.636Z,851.15
2018-02-15T04:25:26.495Z,851.13
2018-02-15T04:26:26.360Z,851.06
2018-02-15T04:27:26.222Z,851.06
2018-02-15T04:28:26.120Z,851.01
2018-02-15T04:29:25.945Z,851.08
2018-02-15T04:30:25.809Z,851.09
2018-02-15T04:31:25.673Z,851.04
2018-02-15T04:32:25.538Z,851.04
2018-02-15T04:33:25.396Z,851.05
2018-02-15T04:34:25.258Z,851.05
2018-02-15T04:35:25.120Z,851.07
2018-02-15T04:36:24.998Z,851.04
2018-02-15T04:37:24.847Z,851.02
2018-02-15T04:38:24.710Z,851.04
2018-02-15T04:39:24.569Z,851.01
2018-02-15T04:40:24.434Z,851.03
2018-02-15T04:41:24.296Z,851.01
2018-02-15T04:42:24.159Z,850.99
2018-02-15T04:43:24.020Z,851.01
2018-02-15T04:44:23.882Z,851.01
2018-02-15T04:45:23.747Z,851.03
2018-02-15T04:46:23.606Z,851.07
2018-02-15T04:47:23.471Z,851.04
2018-02-15T04:48:23.334Z,851.07
2018-02-15T04:49:23.198Z,851.03
2018-02-15T04:50:23.061Z,851.08
2018-02-15T04:51:22.923Z,851.08
2018-02-15T04:52:22.787Z,851.10
2018-02-15T04:53:22.648Z,851.11
2018-02-15T04:54:22.513Z,851.09
2018-02-15T04:55:22.376Z,851.08
2018-02-15T04:56:22.237Z,851.09
2018-02-15T04:57:22.111Z,851.13
2018-02-15T04:58:21.966Z,851.10
2018-02-15T04:59:21.828Z,851.12
2018-02-15T05:00:21.692Z,851.09
2018-02-15T05:01:21.558Z,851.07
2018-02-15T05:02:21.419Z,851.07
2018-02-15T05:03:21.280Z,851.10
2018-02-15T05:04:21.144Z,851.07
2018-02-15T05:05:21.010Z,851.06
2018-02-15T05:06:20.875Z,851.05
2018-02-15T05:07:20.733Z,851.09
2018-02-15T05:08:20.598Z,851.11
2018-02-15T05:09:20.461Z,851.14
2018-02-15T05:10:20.326Z,851.10
2018-02-15T05:11:20.188Z,851.11
2018-02-15T05:12:20.053Z,851.10
2018-02-15T05:13:19.913Z,851.09
2018-02-15T05:14:19.778Z,851.05
2018-02-15T05:15:19.640Z,851.09
2018-02-15T05:16:19.510Z,851.04
2018-02-15T05:17:19.368Z,851.06
2018-02-15T05:18:19.229Z,851.05
2018-02-15T05:19:19.093Z,851.08
2018-02-15T05:20:18.956Z,851.05
2018-02-15T05:21:18.820Z,851.04
2018-02-15T05:22:18.682Z,851.06
2018-02-15T05:23:18.542Z,851.03
2018-02-15T05:24:18.409Z,851.01
2018-02-15T05:25:18.270Z,851.02
2018-02-15T05:26:18.136Z,851.00
2018-02-15T05:27:17.997Z,851.01
2018-02-15T05:28:17.861Z,850.99
2018-02-15T05:29:17.847Z,851.01
2018-02-15T05:30:17.587Z,851.03
2018-02-15T05:31:17.452Z,851.01
2018-02-15T05:32:17.312Z,850.96
2018-02-15T05:33:17.175Z,851.00
2018-02-15T05:34:17.038Z,850.99
2018-02-15T05:35:16.904Z,851.03
2018-02-15T05:36:16.765Z,851.03
2018-02-15T05:37:16.630Z,851.04
2018-02-15T05:38:16.491Z,851.04
2018-02-15T05:39:16.356Z,851.01
2018-02-15T05:40:16.221Z,851.03
2018-02-15T05:41:16.085Z,851.03
2018-02-15T05:42:15.949Z,851.00
2018-02-15T05:43:15.808Z,851.03
2018-02-15T05:44:15.670Z,851.02
2018-02-15T05:45:15.539Z,851.02
2018-02-15T05:46:15.406Z,851.05
2018-02-15T05:47:15.265Z,851.03
2018-02-15T05:48:15.126Z,851.05
2018-02-15T05:49:14.993Z,851.02
2018-02-15T05:50:14.857Z,851.04
2018-02-15T05:51:14.724Z,851.04
2018-02-15T05:52:14.585Z,851.07
2018-02-15T05:53:14.448Z,851.02
2018-02-15T05:54:14.311Z,850.98
2018-02-15T05:55:14.176Z,851.05
2018-02-15T05:56:14.040Z,851.03
2018-02-15T05:57:13.904Z,851.05
2018-02-15T05:58:13.770Z,851.07
2018-02-15T05:59:13.630Z,851.07
2018-02-15T06:00:13.496Z,851.08
2018-02-15T06:01:13.359Z,851.11
2018-02-15T06:02:13.225Z,851.15
2018-02-15T06:03:13.088Z,851.14
2018-02-15T06:04:12.951Z,851.20
2018-02-15T06:05:12.817Z,851.19
2018-02-15T06:06:12.680Z,851.19
2018-02-15T06:07:12.543Z,851.20
2018-02-15T06:08:12.411Z,851.20
2018-02-15T06:09:12.273Z,851.18
2018-02-15T06:10:12.140Z,851.19
2018-02-15T06:11:12.004Z,851.25
2018-02-15T06:12:12.606Z,851.24
2018-02-15T06:13:11.747Z,851.25
2018-02-15T06:14:11.597Z,851.27
2018-02-15T06:15:11.460Z,851.27
2018-02-15T06:16:11.326Z,851.32
2018-02-15T06:17:11.192Z,851.33
2018-02-15T06:18:11.126Z,851.35
2018-02-15T06:19:10.933Z,851.37
2018-02-15T06:20:10.784Z,851.37
2018-02-15T06:21:10.678Z,851.41
2018-02-15T06:22:10.512Z,851.40
2018-02-15T06:23:10.379Z,851.41
2018-02-15T06:24:10.244Z,851.42
2018-02-15T06:25:10.106Z,851.43
2018-02-15T06:26:09.970Z,851.45
2018-02-15T06:27:09.839Z,851.45
2018-02-15T06:28:09.705Z,851.45
2018-02-15T06:29:09.566Z,851.43
2018-02-15T06:30:09.430Z,851.43
2018-02-15T06:31:09.296Z,851.43
2018-02-15T06:32:09.160Z,851.46
2018-02-15T06:33:09.026Z,851.47
2018-02-15T06:34:08.901Z,851.44
2018-02-15T06:35:08.750Z,851.45
2018-02-15T06:36:08.622Z,851.43
2018-02-15T06:37:08.487Z,851.46
2018-02-15T06:38:08.346Z,851.47
2018-02-15T06:39:08.211Z,851.52
2018-02-15T06:40:08.112Z,851.55
2018-02-15T06:41:07.948Z,851.55
2018-02-15T06:42:07.806Z,851.56
2018-02-15T06:43:07.672Z,851.62
2018-02-15T06:44:07.535Z,851.62
2018-02-15T06:45:07.400Z,851.61
2018-02-15T06:46:07.271Z,851.58
2018-02-15T06:47:07.149Z,851.56
2018-02-15T06:48:06.994Z,851.56
2018-02-15T06:49:06.860Z,851.58
2018-02-15T06:50:06.724Z,851.65
2018-02-15T06:51:06.590Z,851.65
2018-02-15T06:52:06.475Z,851.68
2018-02-15T06:53:06.317Z,851.65
2018-02-15T06:54:06.182Z,851.65
2018-02-15T06:55:06.049Z,851.69
2018-02-15T06:56:05.915Z,851.66
2018-02-15T06:57:05.778Z,851.67
2018-02-15T06:58:05.644Z,851.69
2018-02-15T06:59:05.508Z,851.69
2018-02-15T07:00:05.373Z,851.69
2018-02-15T07:01:05.258Z,851.74
2018-02-15T07:02:05.105Z,851.77
2018-02-15T07:03:04.968Z,851.78
2018-02-15T07:04:04.833Z,851.77
2018-02-15T07:05:04.699Z,851.77
2018-02-15T07:06:04.563Z,851.80
2018-02-15T07:07:04.427Z,851.80
2018-02-15T07:08:04.295Z,851.78
2018-02-15T07:09:04.159Z,851.80
2018-02-15T07:10:04.024Z,851.81
2018-02-15T07:11:03.889Z,851.85
2018-02-15T07:12:03.766Z,851.85
2018-02-15T07:13:03.619Z,851.87
2018-02-15T07:14:03.487Z,851.86
2018-02-15T07:15:03.349Z,851.88
2018-02-15T07:16:03.216Z,851.89
2018-02-15T07:17:03.081Z,851.94
2018-02-15T07:18:02.947Z,851.99
2018-02-15T07:19:02.811Z,851.97
2018-02-15T07:20:02.676Z,851.99
2018-02-15T07:21:02.543Z,852.03
2018-02-15T07:22:02.423Z,852.03
2018-02-15T07:23:02.275Z,852.09
2018-02-15T07:24:02.138Z,852.13
2018-02-15T07:25:02.004Z,852.12
2018-02-15T07:26:01.869Z,852.14
2018-02-15T07:27:01.738Z,852.16
2018-02-15T07:28:01.602Z,852.13
2018-02-15T07:29:01.465Z,852.17
2018-02-15T07:30:01.331Z,852.19
2018-02-15T07:31:01.195Z,852.22
2018-02-15T07:32:01.067Z,852.20
2018-02-15T07:33:00.935Z,852.25
2018-02-15T07:34:00.795Z,852.24
2018-02-15T07:35:00.660Z,852.27
2018-02-15T07:36:00.523Z,852.26
2018-02-15T07:37:00.390Z,852.26
2018-02-15T07:38:00.255Z,852.28
2018-02-15T07:39:00.121Z,852.31
2018-02-15T07:39:59.989Z,852.32
2018-02-15T07:40:59.854Z,852.32
2018-02-15T07:41:59.721Z,852.33
2018-02-15T07:42:59.584Z,852.30
2018-02-15T07:43:59.448Z,852.34
2018-02-15T07:44:59.315Z,852.36
2018-02-15T07:45:59.180Z,852.38
2018-02-15T07:46:59.048Z,852.40
2018-02-15T07:47:58.912Z,852.39
2018-02-15T07:48:58.782Z,852.41
2018-02-15T07:49:58.645Z,852.42
2018-02-15T07:50:58.510Z,852.45
2018-02-15T07:51:58.377Z,852.45
2018-02-15T07:52:58.244Z,852.44
2018-02-15T07:53:58.109Z,852.49
2018-02-15T07:54:57.975Z,852.51
2018-02-15T07:55:57.843Z,852.49
2018-02-15T07:56:57.707Z,852.54
2018-02-15T07:57:57.572Z,852.58
2018-02-15T07:58:57.438Z,852.57
2018-02-15T07:59:57.303Z,852.59
2018-02-15T08:00:57.172Z,852.58
2018-02-15T08:01:57.039Z,852.63
2018-02-15T08:02:56.902Z,852.63
2018-02-15T08:03:56.770Z,852.64
2018-02-15T08:04:56.638Z,852.67
2018-02-15T08:05:56.500Z,852.65
2018-02-15T08:06:56.368Z,852.69
2018-02-15T08:07:56.233Z,852.66
2018-02-15T08:08:56.099Z,852.68
2018-02-15T08:09:55.966Z,852.73
2018-02-15T08:10:55.831Z,852.77
2018-02-15T08:11:55.699Z,852.81
2018-02-15T08:12:55.565Z,852.80
2018-02-15T08:13:55.430Z,852.82
2018-02-15T08:14:55.297Z,852.84
2018-02-15T08:15:55.165Z,852.84
2018-02-15T08:16:55.030Z,852.87
2018-02-15T08:17:54.897Z,852.88
2018-02-15T08:18:54.765Z,852.93
2018-02-15T08:19:54.635Z,852.91
2018-02-15T08:20:54.499Z,852.93
2018-02-15T08:21:54.366Z,852.96
2018-02-15T08:22:54.231Z,852.93
2018-02-15T08:23:54.099Z,852.99
2018-02-15T08:24:53.965Z,853.02
2018-02-15T08:25:53.832Z,853.06
2018-02-15T08:26:53.697Z,853.05
2018-02-15T08:27:53.568Z,853.06
2018-02-15T08:28:53.430Z,853.01
2018-02-15T08:29:53.303Z,853.01
2018-02-15T08:30:53.166Z,853.11
2018-02-15T08:31:53.034Z,853.10
2018-02-15T08:32:52.900Z,853.06
2018-02-15T08:33:52.767Z,853.07
2018-02-15T08:34:52.634Z,853.09
2018-02-15T08:35:52.500Z,853.13
2018-02-15T08:36:52.367Z,853.16
2018-02-15T08:37:52.272Z,853.15
2018-02-15T08:38:52.102Z,853.20
2018-02-15T08:39:51.969Z,853.18
2018-02-15T08:40:51.834Z,853.19
2018-02-15T08:41:51.703Z,853.22
2018-02-15T08:42:51.571Z,853.25
2018-02-15T08:43:51.437Z,853.27
2018-02-15T08:44:51.305Z,853.19
2018-02-15T08:45:51.172Z,853.22
2018-02-15T08:46:51.041Z,853.24
2018-02-15T08:47:50.908Z,853.26
2018-02-15T08:48:50.777Z,853.24
2018-02-15T08:49:50.644Z,853.26
2018-02-15T08:50:50.507Z,853.28
2018-02-15T08:51:50.377Z,853.30
2018-02-15T08:52:50.242Z,853.31
2018-02-15T08:53:50.110Z,853.31
2018-02-15T08:54:49.976Z,853.30
2018-02-15T08:55:49.843Z,853.32
2018-02-15T08:56:49.710Z,853.34
2018-02-15T08:57:49.577Z,853.29
2018-02-15T08:58:49.444Z,853.29
2018-02-15T08:59:49.313Z,853.31
2018-02-15T09:00:49.179Z,853.35
2018-02-15T09:01:49.046Z,853.30
2018-02-15T09:02:48.912Z,853.32
2018-02-15T09:03:48.798Z,853.29
2018-02-15T09:04:48.645Z,853.33
2018-02-15T09:05:48.511Z,853.31
2018-02-15T09:06:48.378Z,853.32
2018-02-15T09:07:48.247Z,853.33
2018-02-15T09:08:48.114Z,853.34
2018-02-15T09:09:47.981Z,853.29
2018-02-15T09:10:47.846Z,853.36
2018-02-15T09:11:47.712Z,853.36
2018-02-15T09:12:47.580Z,853.36
2018-02-15T09:13:47.448Z,853.34
2018-02-15T09:14:47.313Z,853.31
2018-02-15T09:15:47.179Z,853.31
2018-02-15T09:16:47.047Z,853.34
2018-02-15T09:17:46.913Z,853.34
2018-02-15T09:18:46.779Z,853.35
2018-02-15T09:19:46.646Z,853.34
2018-02-15T09:20:46.511Z,853.34
2018-02-15T09:21:46.378Z,853.35
2018-02-15T09:22:46.244Z,853.32
2018-02-15T09:23:46.112Z,853.38
2018-02-15T09:24:45.990Z,853.32
2018-02-15T09:25:45.846Z,853.33
2018-02-15T09:26:45.714Z,853.32
2018-02-15T09:27:45.581Z,853.27
2018-02-15T09:28:45.445Z,853.30
2018-02-15T09:29:45.325Z,853.29
2018-02-15T09:30:45.181Z,853.31
2018-02-15T09:31:45.044Z,853.30
2018-02-15T09:32:44.913Z,853.31
2018-02-15T09:33:44.779Z,853.32
2018-02-15T09:34:44.646Z,853.33
2018-02-15T09:35:44.513Z,853.35
2018-02-15T09:36:44.379Z,853.36
2018-02-15T09:37:44.247Z,853.38
2018-02-15T09:38:44.122Z,853.37
2018-02-15T09:39:43.977Z,853.33
2018-02-15T09:40:43.847Z,853.30
2018-02-15T09:41:43.714Z,853.33
2018-02-15T09:42:43.578Z,853.34
2018-02-15T09:43:43.448Z,853.33
2018-02-15T09:44:43.313Z,853.36
2018-02-15T09:45:43.194Z,853.35
2018-02-15T09:46:43.044Z,853.36
2018-02-15T09:47:42.911Z,853.37
2018-02-15T09:48:42.778Z,853.36
2018-02-15T09:49:42.646Z,853.35
2018-02-15T09:50:42.513Z,853.39
2018-02-15T09:51:42.377Z,853.39
2018-02-15T09:52:42.245Z,853.41
2018-02-15T09:53:42.111Z,853.37
2018-02-15T09:54:41.977Z,853.37
2018-02-15T09:55:41.844Z,853.40
2018-02-15T09:56:41.714Z,853.38
2018-02-15T09:57:41.578Z,853.40
2018-02-15T09:58:41.445Z,853.40
2018-02-15T09:59:41.313Z,853.38
2018-02-15T10:00:41.182Z,853.38
2018-02-15T10:01:41.047Z,853.41
2018-02-15T10:02:40.912Z,853.43
2018-02-15T10:03:40.778Z,853.43
2018-02-15T10:04:40.646Z,853.41
2018-02-15T10:05:40.515Z,853.39
2018-02-15T10:06:40.378Z,853.42
2018-02-15T10:07:40.245Z,853.40
2018-02-15T10:08:40.114Z,853.42
2018-02-15T10:09:39.979Z,853.43
2018-02-15T10:10:39.846Z,853.40
2018-02-15T10:11:39.713Z,853.42
2018-02-15T10:12:39.582Z,853.39
2018-02-15T10:13:39.449Z,853.39
2018-02-15T10:14:39.316Z,853.37
2018-02-15T10:15:39.184Z,853.40
2018-02-15T10:16:39.051Z,853.41
2018-02-15T10:17:38.918Z,853.41
2018-02-15T10:18:38.783Z,853.39
2018-02-15T10:19:38.652Z,853.40
2018-02-15T10:20:38.547Z,853.41
2018-02-15T10:21:38.385Z,853.45
2018-02-15T10:22:38.252Z,853.46
2018-02-15T10:23:38.120Z,853.44
2018-02-15T10:24:37.989Z,853.42
2018-02-15T10:25:37.857Z,853.44
2018-02-15T10:26:37.728Z,853.40
2018-02-15T10:27:37.589Z,853.42
2018-02-15T10:28:37.455Z,853.44
2018-02-15T10:29:37.323Z,853.44
2018-02-15T10:30:37.190Z,853.42
2018-02-15T10:31:37.058Z,853.43
2018-02-15T10:32:36.929Z,853.42
2018-02-15T10:33:36.793Z,853.41
2018-02-15T10:34:36.660Z,853.42
2018-02-15T10:35:36.526Z,853.46
2018-02-15T10:36:36.426Z,853.44
2018-02-15T10:37:36.261Z,853.39
2018-02-15T10:38:36.127Z,853.43
2018-02-15T10:39:35.995Z,853.43
2018-02-15T10:40:35.863Z,853.41
2018-02-15T10:41:35.731Z,853.42
2018-02-15T10:42:35.596Z,853.43
2018-02-15T10:43:35.466Z,853.39
2018-02-15T10:44:35.334Z,853.45
2018-02-15T10:45:35.200Z,853.41
2018-02-15T10:46:35.067Z,853.48
2018-02-15T10:47:34.934Z,853.47
2018-02-15T10:48:34.810Z,853.44
2018-02-15T10:49:34.671Z,853.46
2018-02-15T10:50:34.542Z,853.44
2018-02-15T10:51:34.406Z,853.42
2018-02-15T10:52:34.276Z,853.43
2018-02-15T10:53:34.142Z,853.48
2018-02-15T10:54:34.012Z,853.47
2018-02-15T10:55:33.883Z,853.45
2018-02-15T10:56:33.746Z,853.49
2018-02-15T10:57:33.614Z,853.51
2018-02-15T10:58:33.488Z,853.45
2018-02-15T10:59:33.350Z,853.47
2018-02-15T11:00:33.218Z,853.49
2018-02-15T11:01:33.088Z,853.51
2018-02-15T11:02:32.960Z,853.52
2018-02-15T11:03:32.826Z,853.52
2018-02-15T11:04:32.694Z,853.53
2018-02-15T11:05:32.560Z,853.53
2018-02-15T11:06:32.427Z,853.53
2018-02-15T11:07:32.295Z,853.48
2018-02-15T11:08:32.165Z,853.43
2018-02-15T11:09:32.033Z,853.44
2018-02-15T11:10:31.899Z,853.46
2018-02-15T11:11:31.767Z,853.49
2018-02-15T11:12:31.639Z,853.47
2018-02-15T11:13:31.504Z,853.45
2018-02-15T11:14:31.376Z,853.50
2018-02-15T11:15:31.241Z,853.47
2018-02-15T11:16:31.108Z,853.53
2018-02-15T11:17:30.979Z,853.47
2018-02-15T11:18:30.846Z,853.48
2018-02-15T11:19:30.716Z,853.49
2018-02-15T11:20:30.585Z,853.49
2018-02-15T11:21:30.454Z,853.49
2018-02-15T11:22:30.320Z,853.53
2018-02-15T11:23:30.189Z,853.53
2018-02-15T11:24:30.058Z,853.52
2018-02-15T11:25:29.926Z,853.55
2018-02-15T11:26:29.793Z,853.54
2018-02-15T11:27:29.666Z,853.58
2018-02-15T11:28:29.533Z,853.60
2018-02-15T11:29:29.407Z,853.60
2018-02-15T11:30:29.270Z,853.60
2018-02-15T11:31:29.140Z,853.59
2018-02-15T11:32:29.011Z,853.61
2018-02-15T11:33:28.877Z,853.63
2018-02-15T11:34:28.745Z,853.63
2018-02-15T11:35:28.615Z,853.67
2018-02-15T11:36:28.486Z,853.63
2018-02-15T11:37:28.352Z,853.67
2018-02-15T11:38:28.221Z,853.67
2018-02-15T11:39:28.089Z,853.70
2018-02-15T11:40:27.958Z,853.70
2018-02-15T11:41:27.826Z,853.67
2018-02-15T11:42:27.703Z,853.65
2018-02-15T11:43:27.560Z,853.63
2018-02-15T11:44:27.430Z,853.62
2018-02-15T11:45:27.303Z,853.67
2018-02-15T11:46:27.168Z,853.68
2018-02-15T11:47:27.035Z,853.70
2018-02-15T11:48:26.910Z,853.65
2018-02-15T11:49:26.775Z,853.67
2018-02-15T11:50:26.641Z,853.68
2018-02-15T11:51:26.510Z,853.73
2018-02-15T11:52:26.379Z,853.72
2018-02-15T11:53:26.253Z,853.72
2018-02-15T11:54:26.117Z,853.72
2018-02-15T11:55:25.985Z,853.72
2018-02-15T11:56:25.870Z,853.74
2018-02-15T11:57:25.725Z,853.76
2018-02-15T11:58:25.586Z,853.78
2018-02-15T11:59:25.462Z,853.75
2018-02-15T12:00:25.326Z,853.80
2018-02-15T12:01:25.196Z,853.83
2018-02-15T12:02:25.063Z,853.81
2018-02-15T12:03:24.932Z,853.83
2018-02-15T12:04:24.801Z,853.82
2018-02-15T12:05:24.673Z,853.82
2018-02-15T12:06:24.538Z,853.85
2018-02-15T12:07:24.406Z,853.82
2018-02-15T12:08:24.278Z,853.87
2018-02-15T12:09:24.140Z,853.85
2018-02-15T12:10:24.009Z,853.89
2018-02-15T12:11:23.878Z,853.86
2018-02-15T12:12:23.745Z,853.85
2018-02-15T12:13:23.623Z,853.81
2018-02-15T12:14:23.483Z,853.81
2018-02-15T12:15:23.352Z,853.83
2018-02-15T12:16:23.223Z,853.84
2018-02-15T12:17:23.093Z,853.82
2018-02-15T12:18:22.960Z,853.77
2018-02-15T12:19:22.826Z,853.79
2018-02-15T12:20:22.695Z,853.82
2018-02-15T12:21:22.567Z,853.82
2018-02-15T12:22:22.433Z,853.78
2018-02-15T12:23:22.302Z,853.75
2018-02-15T12:24:22.171Z,853.78
2018-02-15T12:25:22.041Z,853.78
2018-02-15T12:26:21.907Z,853.78